Time;durP1;ratioP1;P1;durP2;ratioP2;P2;SDS_P1;SDS_P2;PMS_P1;PMS_P2;Temp;Humidity;BMP_temperature;BMP_pressure;BME280_temperature;BME280_humidity;BME280_pressure;Samples;Min_cycle;Max_cycle;Signal;HPM_P1;HPM_P2
2022/01/03 00:00:52;;;;;;;28.38;3.85;;;;;;;9.51;100.00;101129.75;5104910;28;20038;-73
2022/01/03 00:03:18;;;;;;;27.85;4.10;;;;;;;9.54;100.00;101132.47;5084893;28;20442;-74
2022/01/03 00:05:44;;;;;;;21.77;2.78;;;;;;;9.55;100.00;101131.59;5080164;28;20047;-74
2022/01/03 00:08:15;;;;;;;24.33;3.67;;;;;;;9.52;100.00;101136.78;5107911;28;20023;-73
2022/01/03 00:10:41;;;;;;;33.25;3.90;;;;;;;9.61;100.00;101134.38;5082847;28;20031;-73
2022/01/03 00:13:06;;;;;;;27.50;3.20;;;;;;;9.59;100.00;101141.31;5082863;28;20016;-73
2022/01/03 00:15:32;;;;;;;26.80;3.60;;;;;;;9.55;100.00;101140.38;5106344;28;20064;-73
2022/01/03 00:17:58;;;;;;;25.02;3.75;;;;;;;9.59;100.00;101146.59;5086900;28;20118;-74
2022/01/03 00:20:26;;;;;;;29.27;3.50;;;;;;;9.61;100.00;101137.00;5102350;28;20523;-73
2022/01/03 00:23:06;;;;;;;30.73;3.63;;;;;;;9.64;100.00;101142.34;5101104;28;20055;-74
2022/01/03 00:25:36;;;;;;;39.40;5.03;;;;;;;9.64;100.00;101144.97;5101597;28;20047;-74
2022/01/03 00:28:21;;;;;;;29.27;3.20;;;;;;;9.62;100.00;101150.19;5087117;28;20023;-73
2022/01/03 00:30:53;;;;;;;30.33;5.25;;;;;;;9.58;100.00;101150.09;5107156;28;20055;-74
2022/01/03 00:33:19;;;;;;;24.05;3.65;;;;;;;9.56;100.00;101146.50;5105015;28;20028;-73
2022/01/03 00:35:45;;;;;;;33.92;3.88;;;;;;;9.58;100.00;101150.09;5083410;28;20413;-75
2022/01/03 00:38:12;;;;;;;28.40;3.75;;;;;;;9.56;100.00;101159.66;5086978;28;20416;-73
2022/01/03 00:40:40;;;;;;;29.90;3.75;;;;;;;9.58;100.00;101165.84;5105762;28;20035;-74
2022/01/03 00:43:05;;;;;;;31.23;4.00;;;;;;;9.57;100.00;101166.69;5080915;28;20541;-74
2022/01/03 00:45:32;;;;;;;27.67;3.67;;;;;;;9.53;100.00;101160.47;5059743;28;20165;-73
2022/01/03 00:47:57;;;;;;;28.17;4.13;;;;;;;9.51;100.00;101158.63;5064223;28;20017;-73
2022/01/03 00:50:23;;;;;;;26.08;3.65;;;;;;;9.54;100.00;101164.88;5070825;28;20453;-74
2022/01/03 00:52:51;;;;;;;27.20;3.10;;;;;;;9.53;100.00;101160.47;5067510;28;20032;-74
2022/01/03 00:55:19;;;;;;;23.88;3.17;;;;;;;9.59;100.00;101142.25;5065082;28;20063;-72
2022/01/03 00:58:08;;;;;;;21.02;3.15;;;;;;;9.57;100.00;101153.56;5065335;28;20051;-74
2022/01/03 01:00:41;;;;;;;31.58;3.72;;;;;;;9.53;100.00;101151.69;5062402;28;20517;-74
2022/01/03 01:03:12;;;;;;;23.98;3.45;;;;;;;9.55;100.00;101149.97;5061417;28;20036;-72
2022/01/03 01:05:40;;;;;;;29.35;3.58;;;;;;;9.53;100.00;101151.69;5054400;28;20025;-74
2022/01/03 01:08:06;;;;;;;23.65;3.13;;;;;;;9.50;100.00;101157.75;5067786;28;20373;-73
2022/01/03 01:10:34;;;;;;;25.20;3.50;;;;;;;9.47;100.00;101168.19;5054993;28;20158;-73
2022/01/03 01:13:02;;;;;;;29.27;3.65;;;;;;;9.44;100.00;101158.50;5064235;28;20025;-73
2022/01/03 01:15:28;;;;;;;25.45;5.00;;;;;;;9.45;100.00;101149.78;5061937;28;20036;-73
2022/01/03 01:17:55;;;;;;;24.70;3.30;;;;;;;9.41;100.00;101153.16;5065267;28;20033;-73
2022/01/03 01:20:24;;;;;;;18.52;3.42;;;;;;;9.47;100.00;101167.28;5059643;28;20044;-73
2022/01/03 01:22:50;;;;;;;26.92;3.47;;;;;;;9.44;100.00;101175.97;5065337;28;20032;-74
2022/01/03 01:27:48;;;;;;;30.42;3.88;;;;;;;9.41;100.00;101163.69;5061855;28;20025;-73
2022/01/03 01:30:15;;;;;;;30.88;3.92;;;;;;;9.43;100.00;101167.22;5062757;28;20489;-74
2022/01/03 01:32:47;;;;;;;34.30;3.95;;;;;;;9.44;100.00;101169.00;5065054;28;20043;-73
2022/01/03 01:35:14;;;;;;;27.30;4.07;;;;;;;9.42;100.00;101165.44;5064436;28;20031;-73
2022/01/03 01:37:42;;;;;;;39.55;4.38;;;;;;;9.39;100.00;101161.84;5064236;28;20388;-73
2022/01/03 01:40:10;;;;;;;28.30;4.03;;;;;;;9.40;100.00;101166.22;5061180;28;20423;-73
2022/01/03 01:42:36;;;;;;;29.30;3.75;;;;;;;9.42;100.00;101170.69;5068128;28;20535;-73
2022/01/03 01:45:08;;;;;;;28.00;3.65;;;;;;;9.50;100.00;101157.75;5101028;28;20105;-73
2022/01/03 01:47:38;;;;;;;29.25;3.95;;;;;;;9.48;100.00;101154.19;5082228;28;20084;-73
2022/01/03 01:50:04;;;;;;;20.83;3.20;;;;;;;9.49;100.00;101160.34;5091484;28;20035;-73
2022/01/03 01:52:34;;;;;;;31.95;3.80;;;;;;;9.45;100.00;101155.03;5097438;28;20490;-73
2022/01/03 01:55:05;;;;;;;33.40;4.63;;;;;;;9.44;100.00;101161.13;5103603;28;20031;-74
2022/01/03 01:58:04;;;;;;;20.85;3.65;;;;;;;9.43;100.00;101164.59;5104194;28;20115;-73
2022/01/03 02:00:32;;;;;;;29.92;4.45;;;;;;;9.42;100.00;101181.19;5073629;28;20044;-73
2022/01/03 02:03:09;;;;;;;25.70;3.97;;;;;;;9.45;100.00;101167.25;5081457;28;20027;-74
2022/01/03 02:05:43;;;;;;;25.35;3.42;;;;;;;9.40;100.00;101184.63;5087826;28;20028;-73
2022/01/03 02:08:22;;;;;;;27.38;4.43;;;;;;;9.39;100.00;101182.88;5099418;28;20109;-73
2022/01/03 02:11:12;;;;;;;30.30;3.35;;;;;;;9.39;100.00;101191.63;5102971;28;20067;-73
2022/01/03 02:13:39;;;;;;;33.83;4.80;;;;;;;9.42;100.00;101172.44;5075239;28;20105;-74
2022/01/03 02:16:05;;;;;;;34.97;6.53;;;;;;;9.43;100.00;101188.22;5099142;28;20507;-73
2022/01/03 02:18:31;;;;;;;29.80;4.72;;;;;;;9.42;100.00;101190.81;5083448;28;20087;-73
2022/01/03 02:20:58;;;;;;;38.85;5.55;;;;;;;9.42;100.00;101175.06;5086568;28;20097;-73
2022/01/03 02:23:24;;;;;;;45.40;5.25;;;;;;;9.43;100.00;101177.72;5095073;28;20031;-73
2022/01/03 02:25:49;;;;;;;27.45;4.35;;;;;;;9.41;100.00;101174.19;5084078;28;20024;-73
2022/01/03 02:28:20;;;;;;;34.63;4.22;;;;;;;9.36;100.00;101173.16;5097395;28;20027;-73
2022/01/03 02:30:46;;;;;;;43.35;4.68;;;;;;;9.43;100.00;101193.47;5082025;28;20026;-73
2022/01/03 02:33:11;;;;;;;34.20;3.95;;;;;;;9.39;100.00;101170.59;5106578;28;20430;-73
2022/01/03 02:35:38;;;;;;;30.52;4.70;;;;;;;9.39;100.00;101181.13;5087202;28;20502;-73
2022/01/03 02:38:04;;;;;;;40.03;5.43;;;;;;;9.42;100.00;101181.19;5101090;28;20036;-73
2022/01/03 02:40:31;;;;;;;29.92;4.63;;;;;;;9.36;100.00;101181.03;5082200;28;20458;-73
2022/01/03 02:42:57;;;;;;;39.40;5.32;;;;;;;9.34;100.00;101174.84;5094099;28;20138;-73
2022/01/03 02:45:24;;;;;;;31.52;4.35;;;;;;;9.38;100.00;101175.81;5086659;28;20185;-73
2022/01/03 02:47:56;;;;;;;41.00;5.38;;;;;;;9.41;100.00;101173.28;5100131;28;20466;-73
2022/01/03 02:50:24;;;;;;;32.85;4.03;;;;;;;9.38;100.00;101181.97;5092188;28;20618;-72
2022/01/03 02:52:49;;;;;;;44.25;6.75;;;;;;;9.41;100.00;101173.28;5104248;28;20036;-73
2022/01/03 02:55:17;;;;;;;36.95;5.90;;;;;;;9.39;100.00;101160.09;5106326;28;20035;-72
2022/01/03 02:57:48;;;;;;;33.92;5.65;;;;;;;9.40;100.00;101174.09;5080803;28;20476;-73
2022/01/03 03:00:18;;;;;;;34.47;5.80;;;;;;;9.38;100.00;101183.72;5092864;28;20023;-73
2022/01/03 03:02:44;;;;;;;37.58;4.20;;;;;;;9.39;100.00;101174.97;5106313;28;20411;-74
2022/01/03 03:05:11;;;;;;;45.35;5.30;;;;;;;9.33;100.00;101187.94;5088800;28;20032;-73
2022/01/03 03:07:38;;;;;;;40.45;5.22;;;;;;;9.37;100.00;101184.53;5098294;28;20024;-73
2022/01/03 03:10:06;;;;;;;45.58;4.85;;;;;;;9.36;100.00;101175.78;5084429;28;20390;-73
2022/01/03 03:12:32;;;;;;;44.53;5.00;;;;;;;9.36;100.00;101183.66;5103607;28;20036;-72
2022/01/03 03:14:58;;;;;;;31.13;5.07;;;;;;;9.37;100.00;101174.94;5105623;28;20072;-73
2022/01/03 03:17:23;;;;;;;41.35;4.57;;;;;;;9.37;100.00;101176.66;5094547;28;20568;-73
2022/01/03 03:19:59;;;;;;;41.75;5.45;;;;;;;9.32;100.00;101167.78;5106500;28;20502;-73
2022/01/03 03:22:27;;;;;;;40.97;5.03;;;;;;;9.31;100.00;101166.00;5102847;28;20467;-74
2022/01/03 03:25:11;;;;;;;32.90;6.15;;;;;;;9.29;100.00;101179.06;5106861;28;20783;-73
2022/01/03 03:27:43;;;;;;;38.17;5.47;;;;;;;9.25;100.00;101177.22;5100906;28;20020;-73
2022/01/03 03:30:11;;;;;;;37.70;5.18;;;;;;;9.30;100.00;101170.34;5078676;28;20023;-73
2022/01/03 03:32:36;;;;;;;38.10;5.22;;;;;;;9.28;100.00;101164.19;5086842;28;20106;-73
2022/01/03 03:35:02;;;;;;;39.63;5.03;;;;;;;9.28;100.00;101162.44;5082674;28;20593;-73
2022/01/03 03:37:28;;;;;;;46.63;6.55;;;;;;;9.27;100.00;101159.78;5098881;28;20110;-73
2022/01/03 03:39:53;;;;;;;43.10;6.50;;;;;;;9.24;100.00;101170.22;5100923;28;20170;-73
2022/01/03 03:42:19;;;;;;;25.83;3.97;;;;;;;9.24;100.00;101164.97;5084990;28;20471;-74
2022/01/03 03:44:45;;;;;;;49.05;5.63;;;;;;;9.28;100.00;101165.06;5099262;28;20028;-73
2022/01/03 03:47:11;;;;;;;36.88;5.13;;;;;;;9.30;100.00;101161.59;5104264;28;20476;-73
2022/01/03 03:49:37;;;;;;;49.17;6.82;;;;;;;9.29;100.00;101168.56;5100392;28;20032;-74
2022/01/03 03:52:04;;;;;;;44.28;5.22;;;;;;;9.27;100.00;101159.78;5102697;28;20161;-73
2022/01/03 03:54:33;;;;;;;42.35;6.07;;;;;;;9.24;100.00;101165.84;5085589;28;20478;-73
2022/01/03 03:56:59;;;;;;;35.05;5.10;;;;;;;9.26;100.00;101158.00;5098004;28;20028;-73
2022/01/03 03:59:25;;;;;;;36.13;6.15;;;;;;;9.32;100.00;101158.19;5102413;28;20106;-72
2022/01/03 04:01:52;;;;;;;52.28;6.55;;;;;;;9.30;100.00;101146.72;5081508;28;20028;-73
2022/01/03 04:04:18;;;;;;;44.17;6.80;;;;;;;9.33;100.00;101149.41;5102382;28;20024;-73
2022/01/03 04:06:45;;;;;;;39.10;5.43;;;;;;;9.34;100.00;101143.31;5111164;28;20028;-73
2022/01/03 04:09:10;;;;;;;35.08;5.80;;;;;;;9.29;100.00;101131.81;5108697;28;20030;-73
2022/01/03 04:11:40;;;;;;;41.00;5.18;;;;;;;9.29;100.00;101142.31;5091687;28;20052;-73
2022/01/03 04:14:06;;;;;;;39.13;5.57;;;;;;;9.31;100.00;101129.25;5094121;28;20027;-73
2022/01/03 04:16:32;;;;;;;50.45;6.22;;;;;;;9.30;100.00;101132.72;5105330;28;20379;-73
2022/01/03 04:18:58;;;;;;;38.45;5.97;;;;;;;9.26;100.00;101142.25;5091266;28;20036;-73
2022/01/03 04:21:25;;;;;;;41.20;5.63;;;;;;;9.29;100.00;101137.06;5098004;28;20035;-73
2022/01/03 04:23:51;;;;;;;43.20;5.47;;;;;;;9.29;100.00;101137.06;5099140;28;20654;-73
2022/01/03 04:26:16;;;;;;;45.30;6.05;;;;;;;9.33;100.00;101133.66;5102591;28;20027;-73
2022/01/03 04:28:42;;;;;;;63.13;7.05;;;;;;;9.31;100.00;101138.00;5084034;28;20030;-73
2022/01/03 04:31:07;;;;;;;32.65;5.05;;;;;;;9.32;100.00;101133.63;5087415;28;20117;-73
2022/01/03 04:33:33;;;;;;;37.72;5.45;;;;;;;9.28;100.00;101135.31;5087375;28;20384;-74
2022/01/03 04:35:59;;;;;;;46.58;6.38;;;;;;;9.30;100.00;101132.72;5083343;28;20059;-74
2022/01/03 04:38:25;;;;;;;51.40;6.72;;;;;;;9.31;100.00;101131.88;5084856;28;20085;-73
2022/01/03 04:40:51;;;;;;;46.13;6.38;;;;;;;9.28;100.00;101130.06;5100486;28;20515;-73
2022/01/03 04:43:17;;;;;;;36.60;5.47;;;;;;;9.26;100.00;101123.84;5100317;28;20399;-73
2022/01/03 04:45:42;;;;;;;47.13;6.57;;;;;;;9.24;100.00;101122.94;5107910;28;20020;-72
2022/01/03 04:48:08;;;;;;;51.42;7.30;;;;;;;9.25;100.00;101117.72;5103908;28;20081;-72
2022/01/03 04:50:33;;;;;;;42.95;6.25;;;;;;;9.24;100.00;101125.56;5081757;28;20138;-73
2022/01/03 04:52:59;;;;;;;43.08;7.00;;;;;;;9.23;100.00;101126.41;5086827;28;20065;-73
2022/01/03 04:55:25;;;;;;;49.95;6.65;;;;;;;9.25;100.00;101116.81;5080183;28;20038;-73
2022/01/03 04:57:50;;;;;;;49.70;6.22;;;;;;;9.25;100.00;101115.09;5106595;28;20027;-73
2022/01/03 05:00:16;;;;;;;47.28;6.95;;;;;;;9.35;100.00;101116.22;5084612;28;20032;-74
2022/01/03 05:02:43;;;;;;;48.78;6.70;;;;;;;9.34;100.00;101110.94;5099522;28;20234;-73
2022/01/03 05:05:09;;;;;;;53.13;7.75;;;;;;;9.34;100.00;101111.81;5102607;28;21796;-74
2022/01/03 05:07:35;;;;;;;45.20;6.43;;;;;;;9.35;100.00;101116.22;5100652;28;20029;-73
2022/01/03 05:10:00;;;;;;;45.20;5.95;;;;;;;9.34;100.00;101109.19;5100287;28;20437;-73
2022/01/03 05:12:26;;;;;;;55.20;7.15;;;;;;;9.35;100.00;101115.34;5096639;28;20498;-73
2022/01/03 05:14:51;;;;;;;45.95;6.22;;;;;;;9.36;100.00;101107.50;5091123;28;20032;-74
2022/01/03 05:17:17;;;;;;;44.30;8.30;;;;;;;9.35;100.00;101107.47;5084480;28;20027;-73
2022/01/03 05:19:44;;;;;;;45.50;6.35;;;;;;;9.39;100.00;101107.56;5088841;28;20035;-73
2022/01/03 05:22:10;;;;;;;42.17;5.70;;;;;;;9.38;100.00;101108.41;5106872;28;20073;-73
2022/01/03 05:24:37;;;;;;;51.88;5.65;;;;;;;9.39;100.00;101112.81;5105847;28;20051;-73
2022/01/03 05:27:03;;;;;;;43.20;6.38;;;;;;;9.43;100.00;101100.66;5107194;28;20095;-73
2022/01/03 05:29:29;;;;;;;44.53;6.32;;;;;;;9.43;100.00;101114.69;5082546;28;20027;-73
2022/01/03 05:31:56;;;;;;;42.78;5.75;;;;;;;9.40;100.00;101109.34;5084314;28;20023;-73
2022/01/03 05:34:21;;;;;;;45.63;6.00;;;;;;;9.39;100.00;101112.81;5087239;28;20036;-73
2022/01/03 05:36:48;;;;;;;38.90;4.88;;;;;;;9.41;100.00;101111.16;5100275;28;20081;-74
2022/01/03 05:39:14;;;;;;;46.15;5.68;;;;;;;9.43;100.00;101113.81;5100015;28;20039;-73
2022/01/03 05:41:41;;;;;;;32.38;5.50;;;;;;;9.48;100.00;101106.03;5085303;28;20070;-73
2022/01/03 05:44:07;;;;;;;48.03;6.82;;;;;;;9.53;100.00;101118.44;5100336;28;20074;-73
2022/01/03 05:46:33;;;;;;;40.80;5.38;;;;;;;9.56;100.00;101110.66;5102438;28;20440;-73
2022/01/03 05:48:58;;;;;;;40.50;5.63;;;;;;;9.56;100.00;101109.72;5100730;28;20030;-73
2022/01/03 05:51:24;;;;;;;34.97;5.00;;;;;;;9.52;100.00;101098.28;5103626;28;20050;-73
2022/01/03 05:53:49;;;;;;;57.85;6.47;;;;;;;9.48;100.00;101100.78;5102607;28;20392;-72
2022/01/03 05:56:15;;;;;;;60.83;6.28;;;;;;;9.50;100.00;101105.22;5096179;28;20510;-73
2022/01/03 05:58:40;;;;;;;53.78;7.43;;;;;;;9.51;100.00;101103.47;5103837;28;20042;-73
2022/01/03 06:01:06;;;;;;;33.28;4.78;;;;;;;9.50;100.00;101105.22;5099986;28;20024;-74
2022/01/03 06:03:36;;;;;;;47.10;6.13;;;;;;;9.44;100.00;101095.44;5100125;28;20036;-73
2022/01/03 06:08:28;;;;;;;41.70;6.00;;;;;;;9.38;100.00;101099.66;5104431;28;20035;-73
2022/01/03 06:10:54;;;;;;;52.20;7.28;;;;;;;9.38;100.00;101097.03;5091702;28;20035;-74
2022/01/03 06:13:20;;;;;;;60.20;5.65;;;;;;;9.40;100.00;101093.59;5099123;28;20108;-73
2022/01/03 06:15:46;;;;;;;42.13;5.38;;;;;;;9.44;100.00;101103.34;5095084;28;20035;-74
2022/01/03 06:18:14;;;;;;;33.78;4.50;;;;;;;9.41;100.00;101097.09;5109138;28;20429;-74
2022/01/03 06:20:42;;;;;;;48.85;5.07;;;;;;;9.43;100.00;101088.41;5104638;28;20039;-73
2022/01/03 06:23:11;;;;;;;38.85;5.63;;;;;;;9.37;100.00;101088.28;5108452;28;20337;-73
2022/01/03 06:25:37;;;;;;;39.58;5.50;;;;;;;9.37;100.00;101090.00;5100441;28;20027;-73
2022/01/03 06:28:07;;;;;;;51.28;5.72;;;;;;;9.38;100.00;101082.16;5100823;28;20521;-73
2022/01/03 06:30:41;;;;;;;51.65;7.50;;;;;;;9.40;100.00;101077.84;5101234;28;20447;-73
2022/01/03 06:33:08;;;;;;;41.30;6.85;;;;;;;9.42;100.00;101065.63;5099223;28;20484;-73
2022/01/03 06:35:42;;;;;;;39.80;6.57;;;;;;;9.39;100.00;101097.06;5096905;28;20054;-73
2022/01/03 06:38:07;;;;;;;39.78;5.97;;;;;;;9.43;100.00;101072.66;5106073;28;20467;-73
2022/01/03 06:40:33;;;;;;;44.47;5.75;;;;;;;9.43;100.00;101074.41;5099674;28;20039;-73
2022/01/03 06:42:58;;;;;;;46.45;7.75;;;;;;;9.39;100.00;101086.56;5093826;28;20098;-73
2022/01/03 06:45:24;;;;;;;38.47;6.55;;;;;;;9.41;100.00;101079.63;5055513;28;20517;-74
2022/01/03 06:47:51;;;;;;;54.47;7.88;;;;;;;9.42;100.00;101084.00;5064194;28;20116;-73
2022/01/03 06:50:16;;;;;;;53.08;6.80;;;;;;;9.45;100.00;101081.47;5057171;28;20025;-73
2022/01/03 06:52:41;;;;;;;47.75;6.13;;;;;;;9.39;100.00;101081.31;5060041;28;20491;-73
2022/01/03 06:55:08;;;;;;;41.17;5.18;;;;;;;9.42;100.00;101083.13;5065071;28;20028;-73
2022/01/03 06:57:33;;;;;;;41.40;5.75;;;;;;;9.38;100.00;101082.16;5056417;28;20136;-73
2022/01/03 06:59:59;;;;;;;53.83;6.88;;;;;;;9.35;100.00;101079.47;5055893;28;20543;-73
2022/01/03 07:02:24;;;;;;;52.33;6.22;;;;;;;9.39;100.00;101083.94;5061060;28;20025;-72
2022/01/03 07:04:50;;;;;;;33.95;6.18;;;;;;;9.39;100.00;101076.06;5055841;28;20029;-73
2022/01/03 07:07:15;;;;;;;41.65;7.03;;;;;;;9.37;100.00;101075.16;5062773;28;20044;-73
2022/01/03 07:09:41;;;;;;;48.60;6.68;;;;;;;9.32;100.00;101068.88;5064145;28;20032;-74
2022/01/03 07:12:08;;;;;;;49.90;6.30;;;;;;;9.24;100.00;101070.44;5056325;28;20029;-74
2022/01/03 07:19:52;;;;;;;38.75;7.00;;;;;;;9.21;100.00;101076.50;5059632;28;20128;-74
2022/01/03 07:22:18;;;;;;;44.97;5.30;;;;;;;9.21;100.00;101088.72;5055872;28;20033;-73
2022/01/03 07:24:43;;;;;;;39.80;5.68;;;;;;;9.33;100.00;101077.63;5059197;28;20032;-73
2022/01/03 07:27:11;;;;;;;35.25;5.35;;;;;;;9.32;100.00;101083.72;5055349;28;20033;-73
2022/01/03 07:29:38;;;;;;;42.40;5.32;;;;;;;9.32;100.00;101086.34;5063003;28;20032;-72
2022/01/03 07:32:04;;;;;;;42.90;6.13;;;;;;;9.30;100.00;101083.69;5059880;28;20051;-74
2022/01/03 07:34:30;;;;;;;39.58;5.88;;;;;;;9.29;100.00;101084.53;5061866;28;20037;-73
2022/01/03 07:36:56;;;;;;;33.65;5.35;;;;;;;9.28;100.00;101074.91;5059888;28;20043;-74
2022/01/03 07:39:21;;;;;;;44.53;5.78;;;;;;;9.30;100.00;101077.56;5064676;28;20057;-74
2022/01/03 07:41:47;;;;;;;29.05;4.40;;;;;;;9.26;100.00;101073.97;5067012;28;20090;-73
2022/01/03 07:44:12;;;;;;;39.67;6.25;;;;;;;9.26;100.00;101079.22;5088983;28;20067;-74
2022/01/03 07:46:38;;;;;;;43.38;5.28;;;;;;;9.29;100.00;101084.53;5099364;28;20464;-73
2022/01/03 07:49:04;;;;;;;40.92;5.15;;;;;;;9.28;100.00;101080.16;5106045;28;20066;-74
2022/01/03 07:51:30;;;;;;;35.22;4.85;;;;;;;9.27;100.00;101086.25;5098243;28;20046;-73
2022/01/03 07:53:55;;;;;;;33.75;5.55;;;;;;;9.26;100.00;101105.47;5104865;28;20032;-74
2022/01/03 07:56:21;;;;;;;44.42;7.43;;;;;;;9.26;100.00;101089.72;5082393;28;20092;-72
2022/01/03 07:58:47;;;;;;;45.78;6.13;;;;;;;9.25;100.00;101093.19;5109255;28;20503;-73
2022/01/03 08:01:12;;;;;;;34.35;5.47;;;;;;;9.26;100.00;101094.97;5084971;28;20027;-74
2022/01/03 08:03:39;;;;;;;45.63;5.57;;;;;;;9.27;100.00;101088.88;5085301;28;20015;-73
2022/01/03 08:06:06;;;;;;;37.03;4.38;;;;;;;9.32;100.00;101082.00;5105260;28;20034;-73
2022/01/03 08:08:32;;;;;;;39.30;5.10;;;;;;;9.35;100.00;101084.72;5085558;28;20059;-72
2022/01/03 08:10:57;;;;;;;39.60;5.50;;;;;;;9.31;100.00;101087.22;5103970;28;20044;-73
2022/01/03 08:13:23;;;;;;;38.22;5.07;;;;;;;9.30;100.00;101086.31;5097319;28;20107;-73
2022/01/03 08:15:48;;;;;;;44.15;7.63;;;;;;;9.26;100.00;101087.09;5103115;28;20554;-73
2022/01/03 08:18:14;;;;;;;36.58;6.82;;;;;;;9.24;100.00;101080.94;5083637;28;20034;-73
2022/01/03 08:20:39;;;;;;;47.05;5.07;;;;;;;9.26;100.00;101090.63;5097831;28;20483;-73
2022/01/03 08:23:05;;;;;;;38.85;5.75;;;;;;;9.24;100.00;101084.44;5106050;28;20058;-73
2022/01/03 08:25:36;;;;;;;37.58;5.65;;;;;;;9.25;100.00;101080.06;5109641;28;20032;-73
2022/01/03 08:28:05;;;;;;;36.13;5.15;;;;;;;9.25;100.00;101090.56;5090498;28;20077;-74
2022/01/03 08:30:31;;;;;;;45.65;7.78;;;;;;;9.22;100.00;101093.13;5101329;28;20520;-73
2022/01/03 08:32:56;;;;;;;37.33;5.57;;;;;;;9.20;100.00;101094.84;5084161;28;20052;-73
2022/01/03 08:35:24;;;;;;;37.95;6.43;;;;;;;9.21;100.00;101100.13;5108441;28;20538;-73
2022/01/03 08:37:50;;;;;;;46.85;7.07;;;;;;;9.18;100.00;101101.75;5107996;28;20114;-73
2022/01/03 08:40:15;;;;;;;36.65;6.00;;;;;;;9.26;100.00;101105.47;5092973;28;20110;-74
2022/01/03 08:42:41;;;;;;;35.47;4.18;;;;;;;9.27;100.00;101102.00;5107550;28;20063;-73
2022/01/03 08:45:06;;;;;;;38.22;7.10;;;;;;;9.27;100.00;101112.50;5105601;28;20452;-73
2022/01/03 08:47:32;;;;;;;47.70;5.50;;;;;;;9.30;100.00;101106.47;5107754;28;20065;-73
2022/01/03 08:49:57;;;;;;;47.55;6.32;;;;;;;9.34;100.00;101117.06;5108398;28;20099;-73
2022/01/03 08:52:23;;;;;;;35.90;5.60;;;;;;;9.34;100.00;101117.06;5081168;28;20158;-73
2022/01/03 08:54:49;;;;;;;38.88;6.75;;;;;;;9.38;100.00;101116.28;5084670;28;20044;-72
2022/01/03 08:57:14;;;;;;;39.30;5.57;;;;;;;9.34;100.00;101113.56;5106448;28;20506;-73
2022/01/03 08:59:39;;;;;;;33.25;4.75;;;;;;;9.34;100.00;101103.94;5107248;28;20055;-73
2022/01/03 09:02:05;;;;;;;46.00;6.18;;;;;;;9.38;100.00;101111.03;5104818;28;20518;-72
2022/01/03 09:04:30;;;;;;;38.20;5.90;;;;;;;9.42;100.00;101091.00;5098635;28;20031;-73
2022/01/03 09:06:58;;;;;;;40.70;5.57;;;;;;;9.41;100.00;101105.91;5082943;28;20525;-72
2022/01/03 09:09:25;;;;;;;38.65;5.78;;;;;;;9.41;100.00;101090.13;5084204;28;20043;-73
2022/01/03 09:11:51;;;;;;;36.58;4.75;;;;;;;9.38;100.00;101097.03;5097020;28;20699;-73
2022/01/03 09:14:16;;;;;;;30.90;4.75;;;;;;;9.36;100.00;101091.75;5097345;28;20038;-72
2022/01/03 09:16:41;;;;;;;34.60;4.45;;;;;;;9.42;100.00;101086.63;5105130;28;20032;-72
2022/01/03 09:19:06;;;;;;;28.00;3.97;;;;;;;9.38;100.00;101087.41;5083299;28;20023;-72
2022/01/03 09:21:32;;;;;;;45.47;5.15;;;;;;;9.40;100.00;101079.56;5105156;28;20031;-72
2022/01/03 09:24:22;;;;;;;33.10;5.47;;;;;;;9.40;100.00;101083.09;5107127;28;20690;-72
2022/01/03 09:29:29;;;;;;;;;;;;;;;9.41;100.00;101086.59;5105783;28;20076;-72
2022/01/03 09:31:55;;;;;;;37.78;5.38;;;;;;;9.47;100.00;101085.84;5089037;28;20246;-72
2022/01/03 09:34:21;;;;;;;50.30;8.02;;;;;;;9.49;100.00;101076.28;5082499;27;20043;-73
2022/01/03 09:36:47;;;;;;;43.40;5.53;;;;;;;9.54;100.00;101074.69;5102312;27;20447;-73
2022/01/03 09:39:12;;;;;;;37.22;5.30;;;;;;;9.56;100.00;101078.22;5100925;27;20067;-72
2022/01/03 09:41:43;;;;;;;39.25;5.03;;;;;;;9.67;100.00;101081.09;5085865;28;20036;-73
2022/01/03 09:44:11;;;;;;;41.85;5.00;;;;;;;9.76;100.00;101071.69;5081302;28;20044;-73
2022/01/03 09:46:42;;;;;;;48.50;6.07;;;;;;;9.84;100.00;101077.13;5087624;28;20084;-72
2022/01/03 09:49:10;;;;;;;48.13;6.10;;;;;;;10.00;100.00;101070.50;5103687;28;20030;-73
2022/01/03 09:51:37;;;;;;;39.90;5.60;;;;;;;10.11;100.00;101068.97;5081852;28;20020;-73
2022/01/03 09:54:15;;;;;;;43.25;5.75;;;;;;;10.12;100.00;101080.41;5085962;28;20149;-73
2022/01/03 09:56:42;;;;;;;37.50;6.38;;;;;;;10.29;100.00;101076.41;5081090;28;20073;-73
2022/01/03 09:59:09;;;;;;;31.92;4.65;;;;;;;10.33;100.00;101084.34;5098825;28;20036;-73
2022/01/03 10:01:35;;;;;;;43.92;5.57;;;;;;;10.36;100.00;101069.53;5098950;28;20036;-70
2022/01/03 10:04:02;;;;;;;51.90;6.63;;;;;;;10.38;100.00;101077.47;5098359;28;20040;-70
2022/01/03 10:06:28;;;;;;;38.85;5.70;;;;;;;10.27;100.00;101064.94;5081299;28;20069;-70
2022/01/03 10:08:55;;;;;;;40.35;5.90;;;;;;;10.30;100.00;101066.75;5096752;28;20129;-70
2022/01/03 10:11:22;;;;;;;46.92;7.63;;;;;;;10.39;100.00;101072.25;5101969;28;20047;-70
2022/01/03 10:13:48;;;;;;;35.58;4.90;;;;;;;10.55;100.00;101062.03;5098026;28;20081;-70
2022/01/03 10:16:13;;;;;;;41.35;5.80;;;;;;;10.61;100.00;101075.31;5102612;28;20531;-69
2022/01/03 10:18:39;;;;;;;41.83;5.95;;;;;;;10.70;100.00;101064.97;5103993;28;20031;-71
2022/01/03 10:21:06;;;;;;;43.80;5.07;;;;;;;10.75;100.00;101073.84;5086559;28;20146;-70
2022/01/03 10:23:31;;;;;;;38.08;4.65;;;;;;;10.72;100.00;101058.00;5106872;28;20030;-69
2022/01/03 10:26:23;;;;;;;32.10;5.85;;;;;;;10.88;100.00;101053.91;5105203;27;20040;-70
2022/01/03 10:28:51;;;;;;;45.10;6.50;;;;;;;11.25;99.98;101048.41;5095467;28;20577;-70
2022/01/03 10:31:19;;;;;;;39.95;5.38;;;;;;;11.54;97.75;101056.78;5079188;28;20484;-70
2022/01/03 10:33:46;;;;;;;33.17;5.32;;;;;;;11.73;95.97;101052.69;5096638;28;20076;-70
2022/01/03 10:36:32;;;;;;;27.27;5.28;;;;;;;11.61;95.40;101058.66;5107957;28;20073;-70
2022/01/03 10:38:59;;;;;;;39.78;5.90;;;;;;;11.67;95.13;101043.81;5094104;28;20035;-70
2022/01/03 10:41:25;;;;;;;28.90;5.55;;;;;;;11.39;96.37;101044.25;5104779;28;20024;-70
2022/01/03 10:43:57;;;;;;;35.97;4.80;;;;;;;11.23;97.45;101040.50;5104632;28;20040;-71
2022/01/03 10:46:29;;;;;;;39.72;4.75;;;;;;;11.11;98.11;101041.16;5088933;28;20140;-69
2022/01/03 10:49:20;;;;;;;43.10;5.32;;;;;;;10.93;98.79;101025.03;5087164;28;20030;-70
2022/01/03 10:51:47;;;;;;;33.80;4.78;;;;;;;10.92;99.57;101025.88;5099834;28;20020;-70
2022/01/03 10:54:19;;;;;;;37.50;4.97;;;;;;;10.88;99.62;101030.22;5100277;28;20601;-70
2022/01/03 10:56:49;;;;;;;38.00;5.75;;;;;;;10.84;100.00;101035.38;5104569;28;20027;-70
2022/01/03 10:59:28;;;;;;;30.25;4.38;;;;;;;10.67;100.00;101028.06;5106417;28;20352;-71
2022/01/03 11:01:53;;;;;;;32.88;4.85;;;;;;;10.74;100.00;101032.59;5099964;28;20038;-70
2022/01/03 11:04:52;;;;;;;47.38;6.55;;;;;;;10.91;100.00;101019.72;5079519;28;20031;-70
2022/01/03 11:13:20;;;;;;;46.13;5.85;;;;;;;10.77;100.00;101022.13;5108441;28;20108;-73
2022/01/03 11:15:59;;;;;;;46.03;6.47;;;;;;;10.73;100.00;101016.75;5087175;28;20020;-72
2022/01/03 11:18:27;;;;;;;38.53;5.70;;;;;;;10.67;100.00;101007.00;5107148;28;20375;-74
2022/01/03 11:21:20;;;;;;;45.65;7.15;;;;;;;10.74;100.00;101006.28;5106936;28;20065;-73
2022/01/03 11:23:47;;;;;;;37.85;4.93;;;;;;;10.73;100.00;101004.50;5110181;28;20020;-73
2022/01/03 11:26:18;;;;;;;48.13;6.10;;;;;;;10.65;100.00;101013.09;5115461;28;20036;-74
2022/01/03 11:28:47;;;;;;;40.30;6.03;;;;;;;10.57;100.00;100997.19;5098955;28;20051;-72
2022/01/03 11:31:15;;;;;;;40.90;5.65;;;;;;;10.65;100.00;101000.84;5098127;28;20372;-74
2022/01/03 11:33:41;;;;;;;33.28;5.55;;;;;;;10.87;100.00;101002.09;5089203;28;20042;-73
2022/01/03 11:36:08;;;;;;;47.22;6.57;;;;;;;10.92;100.00;100996.91;5094706;28;20511;-73
2022/01/03 11:38:39;;;;;;;41.90;5.35;;;;;;;10.85;100.00;100974.88;5090910;28;20540;-73